Time;durP1;ratioP1;P1;durP2;ratioP2;P2;SDS_P1;SDS_P2;PMS_P1;PMS_P2;Temp;Humidity;BMP_temperature;BMP_pressure;BME280_temperature;BME280_humidity;BME280_pressure;Samples;Min_cycle;Max_cycle;Signal;HPM_P1;HPM_P2
2022/08/20 00:01:04;;;;;;;1.70;1.20;;;;;;;;;;5092816;28;20527;-77
2022/08/20 00:03:33;;;;;;;5.40;1.27;;;;;;;;;;5092484;28;20455;-77
2022/08/20 00:06:02;;;;;;;0.90;0.70;;;;;;;;;;5091484;28;20946;-77
2022/08/20 00:08:29;;;;;;;1.57;1.10;;;;;;;;;;5092074;28;20531;-77
2022/08/20 00:10:57;;;;;;;2.03;1.10;;;;;;;;;;5091843;28;20767;-77
2022/08/20 00:13:27;;;;;;;1.53;1.10;;;;;;;;;;5092030;28;20476;-77
2022/08/20 00:15:54;;;;;;;0.80;0.80;;;;;;;;;;5091631;28;20451;-77
2022/08/20 00:18:22;;;;;;;1.63;1.07;;;;;;;;;;5092201;28;20442;-76
2022/08/20 00:20:51;;;;;;;1.57;0.97;;;;;;;;;;5091557;28;20448;-77
2022/08/20 00:23:18;;;;;;;1.40;1.10;;;;;;;;;;5092135;28;20451;-77
2022/08/20 00:25:46;;;;;;;1.20;0.87;;;;;;;;;;5090907;28;20949;-77
2022/08/20 00:28:13;;;;;;;1.40;0.80;;;;;;;;;;5092057;28;20934;-78
2022/08/20 00:30:43;;;;;;;1.63;1.10;;;;;;;;;;5092174;28;20440;-78
2022/08/20 00:33:12;;;;;;;1.00;0.90;;;;;;;;;;5090942;28;20488;-78
2022/08/20 00:35:40;;;;;;;1.57;1.00;;;;;;;;;;5091839;28;20455;-78
2022/08/20 00:38:07;;;;;;;1.00;0.90;;;;;;;;;;5091564;28;20441;-77
2022/08/20 00:40:36;;;;;;;1.00;0.87;;;;;;;;;;5091833;28;20441;-78
2022/08/20 00:43:04;;;;;;;1.00;0.70;;;;;;;;;;5091644;28;20838;-77
2022/08/20 00:45:32;;;;;;;1.53;1.27;;;;;;;;;;5091416;28;20535;-78
2022/08/20 00:48:01;;;;;;;1.00;0.87;;;;;;;;;;5091299;28;20804;-78
2022/08/20 00:50:32;;;;;;;1.20;0.97;;;;;;;;;;5091514;28;20457;-78
2022/08/20 00:53:01;;;;;;;1.33;1.00;;;;;;;;;;5091162;28;20472;-78
2022/08/20 00:55:29;;;;;;;1.10;0.80;;;;;;;;;;5091412;28;20447;-78
2022/08/20 00:57:57;;;;;;;0.73;0.73;;;;;;;;;;5091157;28;20444;-78
2022/08/20 01:00:26;;;;;;;1.20;0.90;;;;;;;;;;5091743;28;20441;-78
2022/08/20 01:02:53;;;;;;;1.50;1.07;;;;;;;;;;5090863;28;20994;-78
2022/08/20 01:05:23;;;;;;;0.90;0.77;;;;;;;;;;5090801;28;20472;-78
2022/08/20 01:07:52;;;;;;;1.30;0.80;;;;;;;;;;5091241;28;20532;-78
2022/08/20 01:10:21;;;;;;;1.40;0.90;;;;;;;;;;5091504;28;20453;-77
2022/08/20 01:12:49;;;;;;;2.43;0.90;;;;;;;;;;5091116;28;20487;-77
2022/08/20 01:15:20;;;;;;;1.00;0.90;;;;;;;;;;5091033;28;20468;-78
2022/08/20 01:17:48;;;;;;;1.03;0.83;;;;;;;;;;5091169;28;20429;-78
2022/08/20 01:20:17;;;;;;;1.37;0.77;;;;;;;;;;5091426;28;20480;-77
2022/08/20 01:25:45;;;;;;;1.00;0.87;;;;;;;;;;5091162;28;20420;-78
2022/08/20 01:28:13;;;;;;;1.50;0.80;;;;;;;;;;5091413;28;20440;-78
2022/08/20 01:30:41;;;;;;;7.87;1.20;;;;;;;;;;5091618;28;20550;-77
2022/08/20 01:33:08;;;;;;;1.03;0.70;;;;;;;;;;5090637;28;20492;-76
2022/08/20 01:35:36;;;;;;;2.30;1.00;;;;;;;;;;5090886;28;20447;-78
2022/08/20 01:38:03;;;;;;;0.80;0.70;;;;;;;;;;5090638;28;20500;-77
2022/08/20 01:40:39;;;;;;;1.00;0.80;;;;;;;;;;5091486;28;20487;-78
2022/08/20 01:43:08;;;;;;;1.57;0.90;;;;;;;;;;5090785;28;20432;-78
2022/08/20 01:45:35;;;;;;;1.90;0.67;;;;;;;;;;5094392;28;20449;-78
2022/08/20 01:48:03;;;;;;;0.90;0.70;;;;;;;;;;5094809;28;20451;-77
2022/08/20 01:50:31;;;;;;;1.30;1.10;;;;;;;;;;5094937;28;20451;-78
2022/08/20 01:53:03;;;;;;;1.30;0.90;;;;;;;;;;5094197;28;20472;-78
2022/08/20 01:55:30;;;;;;;2.20;1.00;;;;;;;;;;5094433;28;20441;-76
2022/08/20 01:57:58;;;;;;;1.13;1.00;;;;;;;;;;5094431;28;20536;-75
2022/08/20 02:00:27;;;;;;;1.50;1.03;;;;;;;;;;5095075;28;20782;-75
2022/08/20 02:02:54;;;;;;;1.30;1.10;;;;;;;;;;5093863;28;20444;-75
2022/08/20 02:05:21;;;;;;;1.30;0.90;;;;;;;;;;5093995;28;20436;-78
2022/08/20 02:07:49;;;;;;;0.97;0.80;;;;;;;;;;5094425;28;20476;-78
2022/08/20 02:10:17;;;;;;;0.90;0.80;;;;;;;;;;5094639;28;20511;-78
2022/08/20 02:12:44;;;;;;;0.90;0.73;;;;;;;;;;5094462;28;20440;-74
2022/08/20 02:15:12;;;;;;;1.00;0.90;;;;;;;;;;5094500;28;20476;-78
2022/08/20 02:17:41;;;;;;;0.87;0.70;;;;;;;;;;5095527;28;20471;-78
2022/08/20 02:20:11;;;;;;;0.80;0.70;;;;;;;;;;5093737;28;20440;-78
2022/08/20 02:22:40;;;;;;;2.00;1.10;;;;;;;;;;5095104;28;20524;-78
2022/08/20 02:25:09;;;;;;;0.80;0.63;;;;;;;;;;5094839;28;20443;-78
2022/08/20 02:27:37;;;;;;;1.10;1.00;;;;;;;;;;5097273;28;20444;-78
2022/08/20 02:30:06;;;;;;;1.00;0.70;;;;;;;;;;5114194;28;20903;-76
2022/08/20 02:32:33;;;;;;;2.60;1.00;;;;;;;;;;5111482;28;20444;-74
2022/08/20 02:35:02;;;;;;;1.20;0.90;;;;;;;;;;5111729;28;20499;-75
2022/08/20 02:37:30;;;;;;;0.80;0.73;;;;;;;;;;5112259;28;20468;-75
2022/08/20 02:39:57;;;;;;;0.93;0.77;;;;;;;;;;5113014;28;20417;-74
2022/08/20 02:42:25;;;;;;;7.30;1.07;;;;;;;;;;5118237;28;20442;-74
2022/08/20 02:44:53;;;;;;;1.27;0.93;;;;;;;;;;5111569;28;20904;-75
2022/08/20 02:47:20;;;;;;;1.20;1.10;;;;;;;;;;5094838;28;20502;-76
2022/08/20 02:49:48;;;;;;;1.30;1.10;;;;;;;;;;5093822;28;20520;-78
2022/08/20 02:52:16;;;;;;;1.17;1.00;;;;;;;;;;5094358;28;20441;-78
2022/08/20 02:54:44;;;;;;;1.20;0.90;;;;;;;;;;5093934;28;20479;-78
2022/08/20 02:57:12;;;;;;;1.10;1.00;;;;;;;;;;5093196;28;20473;-75
2022/08/20 02:59:40;;;;;;;1.00;0.80;;;;;;;;;;5093867;28;20940;-76
2022/08/20 03:02:07;;;;;;;1.40;1.03;;;;;;;;;;5093182;28;20886;-76
2022/08/20 03:04:34;;;;;;;0.90;0.77;;;;;;;;;;5092890;28;20455;-76
2022/08/20 03:07:01;;;;;;;1.40;1.07;;;;;;;;;;5093004;28;20853;-75
2022/08/20 03:09:30;;;;;;;1.30;1.03;;;;;;;;;;5093793;28;20439;-76
2022/08/20 03:11:57;;;;;;;1.27;1.13;;;;;;;;;;5093107;28;20447;-75
2022/08/20 03:14:24;;;;;;;0.80;0.70;;;;;;;;;;5093092;28;20511;-74
2022/08/20 03:16:51;;;;;;;0.93;0.80;;;;;;;;;;5092594;28;20527;-75
2022/08/20 03:19:18;;;;;;;1.30;1.03;;;;;;;;;;5093575;28;20510;-75
2022/08/20 03:21:46;;;;;;;1.10;0.80;;;;;;;;;;5092956;28;20437;-76
2022/08/20 03:24:13;;;;;;;0.93;0.80;;;;;;;;;;5093150;28;20449;-74
2022/08/20 03:26:42;;;;;;;1.07;0.97;;;;;;;;;;5093332;28;20437;-77
2022/08/20 03:29:09;;;;;;;1.20;1.00;;;;;;;;;;5093558;28;20444;-76
2022/08/20 03:31:37;;;;;;;1.30;0.97;;;;;;;;;;5093119;28;20444;-76
2022/08/20 03:34:04;;;;;;;1.20;1.00;;;;;;;;;;5092364;28;20726;-77
2022/08/20 03:36:31;;;;;;;1.43;1.00;;;;;;;;;;5093028;28;20502;-77
2022/08/20 03:38:59;;;;;;;1.40;1.30;;;;;;;;;;5092672;28;20441;-76
2022/08/20 03:41:27;;;;;;;1.33;1.10;;;;;;;;;;5092808;28;20441;-76
2022/08/20 03:43:56;;;;;;;2.30;1.20;;;;;;;;;;5092108;28;20915;-76
2022/08/20 03:46:23;;;;;;;1.13;1.03;;;;;;;;;;5092565;28;20486;-77
2022/08/20 03:48:50;;;;;;;1.53;1.23;;;;;;;;;;5092252;28;20519;-76
2022/08/20 03:51:17;;;;;;;2.00;1.37;;;;;;;;;;5092613;28;20472;-77
2022/08/20 03:53:44;;;;;;;1.20;1.10;;;;;;;;;;5092275;28;20476;-70
2022/08/20 03:56:11;;;;;;;1.10;0.90;;;;;;;;;;5092190;28;20962;-77
2022/08/20 03:58:39;;;;;;;0.87;0.80;;;;;;;;;;5093034;28;20448;-77
2022/08/20 04:01:07;;;;;;;1.13;1.03;;;;;;;;;;5092232;28;20437;-77
2022/08/20 04:03:34;;;;;;;1.40;1.20;;;;;;;;;;5092468;28;20452;-74
2022/08/20 04:06:02;;;;;;;2.13;1.17;;;;;;;;;;5091416;28;20441;-77
2022/08/20 04:08:30;;;;;;;1.53;1.20;;;;;;;;;;5092638;28;20444;-77
2022/08/20 04:10:58;;;;;;;1.73;1.20;;;;;;;;;;5091746;28;20912;-76
2022/08/20 04:13:26;;;;;;;1.30;1.20;;;;;;;;;;5092376;28;20444;-76
2022/08/20 04:15:54;;;;;;;1.40;1.30;;;;;;;;;;5091525;28;20484;-76
2022/08/20 04:18:24;;;;;;;1.30;1.20;;;;;;;;;;5092307;28;20437;-76
2022/08/20 04:20:52;;;;;;;1.30;1.20;;;;;;;;;;5091655;28;20516;-77
2022/08/20 04:23:19;;;;;;;1.70;1.20;;;;;;;;;;5092248;28;20765;-76
2022/08/20 04:25:47;;;;;;;1.43;1.23;;;;;;;;;;5091092;28;20453;-76
2022/08/20 04:28:18;;;;;;;1.70;1.40;;;;;;;;;;5078945;28;20436;-74
2022/08/20 04:30:45;;;;;;;1.50;1.40;;;;;;;;;;5091865;28;20429;-76
2022/08/20 04:33:12;;;;;;;1.40;1.20;;;;;;;;;;5092111;28;20480;-76
2022/08/20 04:35:41;;;;;;;1.00;0.90;;;;;;;;;;5091474;28;20479;-77
2022/08/20 04:38:12;;;;;;;1.80;1.50;;;;;;;;;;5092227;28;20467;-76
2022/08/20 04:40:56;;;;;;;1.93;1.47;;;;;;;;;;5092286;28;20437;-77
2022/08/20 04:43:25;;;;;;;1.37;1.27;;;;;;;;;;5092006;28;20787;-77
2022/08/20 04:45:52;;;;;;;1.47;1.37;;;;;;;;;;5091019;28;20448;-77
2022/08/20 04:48:22;;;;;;;1.47;1.37;;;;;;;;;;5091675;28;20919;-77
2022/08/20 04:50:52;;;;;;;2.30;1.70;;;;;;;;;;5091151;28;20432;-77
2022/08/20 04:53:21;;;;;;;1.60;1.50;;;;;;;;;;5091570;28;20433;-77
2022/08/20 04:55:48;;;;;;;2.70;2.20;;;;;;;;;;5090900;28;20549;-77
2022/08/20 04:58:17;;;;;;;2.30;1.60;;;;;;;;;;5091567;28;20919;-77
2022/08/20 05:00:46;;;;;;;2.00;1.80;;;;;;;;;;5091336;28;20441;-70
2022/08/20 05:03:14;;;;;;;1.80;1.60;;;;;;;;;;5091419;28;20920;-77
2022/08/20 05:05:41;;;;;;;2.13;1.93;;;;;;;;;;5091279;28;20452;-77
2022/08/20 05:08:11;;;;;;;1.73;1.63;;;;;;;;;;5091342;28;20862;-77
2022/08/20 05:10:38;;;;;;;1.73;1.63;;;;;;;;;;5091758;28;20848;-77
2022/08/20 05:13:05;;;;;;;1.83;1.70;;;;;;;;;;5090818;28;20924;-77
2022/08/20 05:15:33;;;;;;;2.50;1.50;;;;;;;;;;5091072;28;20476;-77
2022/08/20 05:18:03;;;;;;;2.40;1.53;;;;;;;;;;5090873;28;20451;-77
2022/08/20 05:20:32;;;;;;;1.83;1.73;;;;;;;;;;5095382;28;20436;-77
2022/08/20 05:22:59;;;;;;;2.40;1.70;;;;;;;;;;5095142;28;20539;-77
2022/08/20 05:25:29;;;;;;;1.50;1.40;;;;;;;;;;5095261;28;20444;-77
2022/08/20 05:27:58;;;;;;;1.53;1.43;;;;;;;;;;5094976;28;20441;-77
2022/08/20 05:30:25;;;;;;;1.53;1.43;;;;;;;;;;5095406;28;20888;-77
2022/08/20 05:32:52;;;;;;;1.50;1.40;;;;;;;;;;5094860;28;20472;-77
2022/08/20 05:35:19;;;;;;;1.70;1.60;;;;;;;;;;5094868;28;20482;-77
2022/08/20 05:37:47;;;;;;;1.50;1.40;;;;;;;;;;5094761;28;20515;-76
2022/08/20 05:40:15;;;;;;;3.17;2.00;;;;;;;;;;5095526;28;20516;-75
2022/08/20 05:42:43;;;;;;;2.10;1.60;;;;;;;;;;5094980;28;20966;-77
2022/08/20 05:45:11;;;;;;;2.30;2.10;;;;;;;;;;5095130;28;20439;-77
2022/08/20 05:47:39;;;;;;;1.67;1.30;;;;;;;;;;5094815;28;20983;-77
2022/08/20 05:50:07;;;;;;;2.10;1.90;;;;;;;;;;5094434;28;20788;-77
2022/08/20 05:52:34;;;;;;;1.93;1.73;;;;;;;;;;5081897;28;20437;-77
2022/08/20 05:55:01;;;;;;;1.67;1.30;;;;;;;;;;5093774;28;20481;-76
2022/08/20 05:57:28;;;;;;;2.47;1.90;;;;;;;;;;5094984;28;20489;-77
2022/08/20 05:59:57;;;;;;;3.33;2.13;;;;;;;;;;5094326;28;20444;-77
2022/08/20 06:05:09;;;;;;;4.17;3.37;;;;;;;;;;5093956;28;20474;-78
2022/08/20 06:07:37;;;;;;;2.90;2.60;;;;;;;;;;5094843;28;20502;-77
2022/08/20 06:10:04;;;;;;;2.80;1.77;;;;;;;;;;5094336;28;20448;-77
2022/08/20 06:12:32;;;;;;;1.80;1.60;;;;;;;;;;5094778;28;20912;-76
2022/08/20 06:15:00;;;;;;;2.13;1.93;;;;;;;;;;5093769;28;20476;-77
2022/08/20 06:17:28;;;;;;;1.77;1.60;;;;;;;;;;5094868;28;20429;-77
2022/08/20 06:19:55;;;;;;;1.97;1.70;;;;;;;;;;5093936;28;20443;-77
2022/08/20 06:22:22;;;;;;;2.30;2.10;;;;;;;;;;5094812;28;20784;-77
2022/08/20 06:24:50;;;;;;;2.30;1.80;;;;;;;;;;5093706;28;20451;-77
2022/08/20 06:27:17;;;;;;;2.10;1.90;;;;;;;;;;5094547;28;20441;-77
2022/08/20 06:29:44;;;;;;;1.83;1.73;;;;;;;;;;5093268;28;20520;-71
2022/08/20 06:32:13;;;;;;;1.90;1.70;;;;;;;;;;5093801;28;20451;-77
2022/08/20 06:34:40;;;;;;;3.47;2.23;;;;;;;;;;5093886;28;20484;-77
2022/08/20 06:37:15;;;;;;;1.93;1.73;;;;;;;;;;5093826;28;20465;-76
2022/08/20 06:39:43;;;;;;;2.50;2.30;;;;;;;;;;5081923;28;20443;-77
2022/08/20 06:42:10;;;;;;;1.83;1.73;;;;;;;;;;5096263;28;20433;-77
2022/08/20 06:44:38;;;;;;;2.23;2.03;;;;;;;;;;5114021;28;20484;-77
2022/08/20 06:47:05;;;;;;;1.93;1.73;;;;;;;;;;5117011;28;20441;-76
2022/08/20 06:49:36;;;;;;;3.03;1.90;;;;;;;;;;5115245;28;20464;-77
2022/08/20 06:52:04;;;;;;;2.07;1.80;;;;;;;;;;5100018;28;20847;-78
2022/08/20 06:54:33;;;;;;;2.43;1.87;;;;;;;;;;5094144;28;20437;-78
2022/08/20 06:57:00;;;;;;;2.30;2.10;;;;;;;;;;5093512;28;20436;-78
2022/08/20 06:59:27;;;;;;;2.57;2.10;;;;;;;;;;5094236;28;20503;-78
2022/08/20 07:01:55;;;;;;;2.10;1.90;;;;;;;;;;5093405;28;20833;-78
2022/08/20 07:04:22;;;;;;;2.17;1.53;;;;;;;;;;5093293;28;20476;-77
2022/08/20 07:06:51;;;;;;;3.20;2.43;;;;;;;;;;5092696;28;20971;-77
2022/08/20 07:09:18;;;;;;;2.10;1.90;;;;;;;;;;5093893;28;20780;-77
2022/08/20 07:11:47;;;;;;;2.27;2.07;;;;;;;;;;5093181;28;20429;-77
2022/08/20 07:14:14;;;;;;;2.30;1.90;;;;;;;;;;5093406;28;20452;-75
2022/08/20 07:16:41;;;;;;;1.67;1.57;;;;;;;;;;5093561;28;20476;-77
2022/08/20 07:19:08;;;;;;;2.10;1.77;;;;;;;;;;5093173;28;20757;-78
2022/08/20 07:21:36;;;;;;;2.10;1.90;;;;;;;;;;5093140;28;20437;-77
2022/08/20 07:24:05;;;;;;;2.77;2.00;;;;;;;;;;5092381;28;20636;-78
2022/08/20 07:26:33;;;;;;;2.03;1.73;;;;;;;;;;5093554;28;20441;-77
2022/08/20 07:29:00;;;;;;;2.90;1.73;;;;;;;;;;5092337;28;20441;-77
2022/08/20 07:34:12;;;;;;;2.23;1.80;;;;;;;;;;5092964;28;20467;-77
2022/08/20 07:36:40;;;;;;;1.80;1.70;;;;;;;;;;5093116;28;20893;-78
2022/08/20 07:39:08;;;;;;;2.87;2.03;;;;;;;;;;5092279;28;20930;-78
2022/08/20 07:41:35;;;;;;;1.90;1.63;;;;;;;;;;5093045;28;20476;-78
2022/08/20 07:44:03;;;;;;;3.63;1.40;;;;;;;;;;5092175;28;20444;-78
2022/08/20 07:46:31;;;;;;;2.60;1.60;;;;;;;;;;5093242;28;20800;-78
2022/08/20 07:48:58;;;;;;;1.80;1.67;;;;;;;;;;5092194;28;20440;-78
2022/08/20 07:51:25;;;;;;;2.80;1.77;;;;;;;;;;5092720;28;20555;-78
2022/08/20 07:53:52;;;;;;;2.00;1.73;;;;;;;;;;5092036;28;20435;-78
2022/08/20 07:56:22;;;;;;;2.10;1.87;;;;;;;;;;5093085;28;20572;-78
2022/08/20 07:58:52;;;;;;;1.60;1.50;;;20.90;99.90;;;;;;5092207;28;20440;-77
2022/08/20 08:01:20;;;;;;;1.73;1.63;;;22.60;1.00;;;;;;5092977;28;20528;-78
2022/08/20 08:03:47;;;;;;;2.33;1.70;;;22.60;1.00;;;;;;5091863;28;20455;-77
2022/08/20 08:06:14;;;;;;;2.33;1.57;;;22.80;99.90;;;;;;5092639;28;20865;-75
2022/08/20 08:08:42;;;;;;;2.03;1.77;;;22.90;99.90;;;;;;5092572;28;20443;-77
2022/08/20 08:11:09;;;;;;;2.23;1.77;;;22.70;99.90;;;;;;5092897;28;20437;-78
2022/08/20 08:13:41;;;;;;;2.03;1.70;;;22.80;99.90;;;;;;5092678;28;20433;-78
2022/08/20 08:16:10;;;;;;;3.87;1.90;;;22.80;99.90;;;;;;5091847;28;20486;-77
2022/08/20 08:18:41;;;;;;;2.60;2.40;;;22.80;99.90;;;;;;5092130;28;20447;-78
2022/08/20 08:21:11;;;;;;;1.90;1.63;;;23.00;99.90;;;;;;5091458;28;20519;-77
2022/08/20 08:23:39;;;;;;;2.80;1.67;;;23.00;99.90;;;;;;5092432;28;20429;-78
2022/08/20 08:26:06;;;;;;;2.00;1.50;;;23.00;99.90;;;;;;5091197;28;20467;-77
2022/08/20 08:28:35;;;;;;;1.83;1.50;;;23.10;99.90;;;;;;5092273;28;20527;-76
2022/08/20 08:31:03;;;;;;;1.67;1.57;;;23.10;99.90;;;;;;5091323;28;20440;-77
2022/08/20 08:33:32;;;;;;;2.27;1.70;;;23.20;45.30;;;;;;5091660;28;20479;-78
2022/08/20 08:36:02;;;;;;;1.63;1.53;;;23.40;39.60;;;;;;5090955;28;20476;-77
2022/08/20 08:38:29;;;;;;;2.00;1.80;;;23.50;1.00;;;;;;5092209;28;20444;-78
2022/08/20 08:41:03;;;;;;;1.50;1.40;;;23.80;1.00;;;;;;5091164;28;20443;-78
2022/08/20 08:43:31;;;;;;;1.60;1.50;;;23.60;1.00;;;;;;5092124;28;20464;-78
2022/08/20 08:46:01;;;;;;;2.47;1.80;;;23.50;1.00;;;;;;5090843;28;20818;-78
2022/08/20 08:48:34;;;;;;;1.63;1.53;;;23.50;1.00;;;;;;5091517;28;20437;-77
2022/08/20 08:51:06;;;;;;;2.83;1.73;;;23.50;1.00;;;;;;5091186;28;20437;-78
2022/08/20 08:53:37;;;;;;;2.00;1.80;;;23.70;1.00;;;;;;5090791;28;20429;-78
2022/08/20 08:56:05;;;;;;;2.17;1.57;;;23.70;1.00;;;;;;5091631;28;20858;-78
2022/08/20 08:58:34;;;;;;;2.03;1.67;;;24.00;1.00;;;;;;5091368;28;20459;-78
2022/08/20 09:01:03;;;;;;;2.23;1.40;;;24.00;1.00;;;;;;5091454;28;20437;-79
2022/08/20 09:03:33;;;;;;;2.83;1.90;;;24.10;1.00;;;;;;5091725;28;20456;-78
2022/08/20 09:06:02;;;;;;;1.57;1.40;;;23.90;1.00;;;;;;5090740;28;20437;-78
2022/08/20 09:08:33;;;;;;;1.90;1.57;;;24.10;1.00;;;;;;5091479;28;20439;-79
2022/08/20 09:11:04;;;;;;;1.47;1.37;;;24.20;99.90;;;;;;5091416;28;20473;-77
2022/08/20 09:13:32;;;;;;;1.37;1.27;;;24.10;99.90;;;;;;5091760;28;20448;-78
2022/08/20 09:15:59;;;;;;;2.97;2.40;;;24.00;99.90;;;;;;5090339;28;20479;-78
2022/08/20 09:18:26;;;;;;;1.97;1.47;;;24.00;99.90;;;;;;5091532;28;20616;-78
2022/08/20 09:20:55;;;;;;;1.67;1.57;;;23.90;99.90;;;;;;5091062;28;20440;-78
2022/08/20 09:23:21;;;;;;;2.97;1.83;;;23.80;99.90;;;;;;5092079;28;20432;-78
2022/08/20 09:25:49;;;;;;;1.80;1.70;;;23.90;99.90;;;;;;5091823;28;20445;-78
2022/08/20 09:28:16;;;;;;;2.77;1.43;;;23.90;99.90;;;;;;5093428;28;20468;-78
2022/08/20 09:30:43;;;;;;;1.60;1.50;;;23.80;99.90;;;;;;5094592;28;20499;-78
2022/08/20 09:33:10;;;;;;;1.83;1.30;;;24.10;99.90;;;;;;5082765;28;20567;-78
2022/08/20 09:35:38;;;;;;;2.87;1.17;;;24.10;99.90;;;;;;5096614;28;20479;-78
2022/08/20 09:38:07;;;;;;;1.20;1.10;;;24.20;99.90;;;;;;5097956;28;20498;-78
2022/08/20 09:40:34;;;;;;;1.20;1.10;;;24.30;99.90;;;;;;5098115;28;20678;-78
2022/08/20 09:43:02;;;;;;;1.17;1.07;;;24.20;99.90;;;;;;5099423;28;20436;-78
2022/08/20 09:45:29;;;;;;;1.33;1.13;;;24.40;99.90;;;;;;5099757;28;20437;-78
2022/08/20 09:47:55;;;;;;;1.37;1.13;;;24.40;99.90;;;;;;5101264;28;20439;-78
2022/08/20 09:50:22;;;;;;;1.57;1.47;;;24.40;99.90;;;;;;5102896;28;20460;-78
2022/08/20 09:52:51;;;;;;;1.40;1.30;;;24.30;99.90;;;;;;5104596;28;20765;-77
2022/08/20 09:55:24;;;;;;;1.40;1.30;;;24.30;99.90;;;;;;5106235;28;20523;-78
2022/08/20 09:57:51;;;;;;;1.60;1.43;;;24.20;99.90;;;;;;5108597;28;20484;-77
2022/08/20 10:00:19;;;;;;;1.20;1.10;;;24.20;99.90;;;;;;5109531;28;20475;-78
2022/08/20 10:02:46;;;;;;;1.87;1.13;;;24.10;99.90;;;;;;5109682;28;20452;-71
2022/08/20 10:05:13;;;;;;;1.10;1.00;;;24.00;99.90;;;;;;5112233;28;20457;-77
2022/08/20 10:07:41;;;;;;;0.90;0.80;;;24.00;99.90;;;;;;5114317;28;20441;-78
2022/08/20 10:10:11;;;;;;;1.63;1.10;;;23.80;99.90;;;;;;5114727;28;20463;-78
2022/08/20 10:12:40;;;;;;;1.07;0.97;;;23.50;99.90;;;;;;5116052;28;20471;-78
2022/08/20 10:15:08;;;;;;;1.10;0.97;;;24.00;99.90;;;;;;5115662;28;20445;-78
2022/08/20 10:17:37;;;;;;;1.13;0.80;;;23.90;99.90;;;;;;5117316;28;20524;-76
2022/08/20 10:20:06;;;;;;;1.40;0.77;;;24.30;99.90;;;;;;5116745;28;20507;-79
2022/08/20 10:22:33;;;;;;;1.27;1.10;;;24.60;99.90;;;;;;5117159;28;20445;-78
2022/08/20 10:25:00;;;;;;;1.20;1.10;;;24.50;99.90;;;;;;5115070;28;20460;-78
2022/08/20 10:27:26;;;;;;;1.53;0.97;;;24.50;99.90;;;;;;5117216;28;20522;-76
2022/08/20 10:29:55;;;;;;;1.53;1.00;;;24.60;99.90;;;;;;5115790;28;20448;-76
2022/08/20 10:32:21;;;;;;;0.90;0.80;;;24.10;99.90;;;;;;5116528;28;20451;-77
2022/08/20 10:34:48;;;;;;;0.77;0.70;;;24.00;99.90;;;;;;5115614;28;20491;-74
2022/08/20 10:37:16;;;;;;;1.13;0.90;;;23.90;99.90;;;;;;5116305;28;20492;-70
2022/08/20 10:39:44;;;;;;;1.47;0.97;;;23.90;99.90;;;;;;5117478;28;20493;-77
2022/08/20 10:42:11;;;;;;;1.17;0.70;;;23.80;99.90;;;;;;5117127;28;20512;-74
2022/08/20 10:44:38;;;;;;;0.80;0.70;;;23.80;99.90;;;;;;5116549;28;20471;-76
2022/08/20 10:47:18;;;;;;;0.80;0.60;;;23.80;99.90;;;;;;5117055;28;20457;-76
2022/08/20 10:49:45;;;;;;;1.27;0.70;;;23.80;99.90;;;;;;5117140;28;20589;-69
2022/08/20 10:52:12;;;;;;;0.70;0.60;;;23.70;99.90;;;;;;5116896;28;20472;-77
2022/08/20 10:54:40;;;;;;;0.93;0.60;;;23.80;99.90;;;;;;5115585;28;20484;-76
2022/08/20 10:57:08;;;;;;;0.70;0.60;;;23.90;99.90;;;;;;5114024;28;20480;-77
2022/08/20 10:59:39;;;;;;;1.17;0.80;;;23.70;99.90;;;;;;5114802;28;20947;-77
2022/08/20 11:02:05;;;;;;;0.70;0.70;;;23.40;99.90;;;;;;5113580;28;20437;-77
2022/08/20 11:04:34;;;;;;;0.70;0.60;;;23.20;1.00;;;;;;5114002;28;20445;-77
2022/08/20 11:07:11;;;;;;;1.07;0.70;;;23.30;1.00;;;;;;5113225;28;20476;-77
2022/08/20 11:09:38;;;;;;;1.37;0.60;;;23.20;1.00;;;;;;5114291;28;20446;-79
2022/08/20 11:12:05;;;;;;;0.83;0.67;;;23.00;99.90;;;;;;5112335;28;20525;-78
2022/08/20 11:14:32;;;;;;;0.80;0.70;;;23.20;99.90;;;;;;5098341;28;20444;-77
2022/08/20 11:16:59;;;;;;;2.07;0.93;;;23.40;99.90;;;;;;5096006;28;20504;-77
2022/08/20 11:19:26;;;;;;;1.40;0.80;;;23.70;99.90;;;;;;5096419;28;20440;-77
2022/08/20 11:21:54;;;;;;;0.67;0.60;;;24.00;99.90;;;;;;5095250;28;20445;-78
2022/08/20 11:24:21;;;;;;;1.10;0.80;;;24.10;99.90;;;;;;5094055;28;20433;-77
2022/08/20 11:26:49;;;;;;;0.73;0.60;;;24.50;99.90;;;;;;5093739;28;20444;-78
2022/08/20 11:29:17;;;;;;;0.60;0.50;;;24.50;99.90;;;;;;5094152;28;20452;-78
2022/08/20 11:31:44;;;;;;;0.73;0.60;;;24.70;99.90;;;;;;5093911;28;20472;-69
2022/08/20 11:34:11;;;;;;;0.90;0.60;;;24.30;99.90;;;;;;5093110;28;20468;-78
2022/08/20 11:36:38;;;;;;;1.90;0.60;;;23.90;99.90;;;;;;5093467;28;20476;-78
2022/08/20 11:39:06;;;;;;;0.70;0.60;;;23.60;99.90;;;;;;5092681;28;20445;-77
2022/08/20 11:41:33;;;;;;;0.60;0.50;;;23.60;99.90;;;;;;5093463;28;20525;-77
2022/08/20 11:44:00;;;;;;;0.80;0.67;;;23.50;99.90;;;;;;5091919;28;20440;-77
2022/08/20 11:46:27;;;;;;;0.70;0.50;;;23.70;99.90;;;;;;5093096;28;20523;-77
2022/08/20 11:48:53;;;;;;;0.80;0.60;;;23.60;99.90;;;;;;5092484;28;20441;-77
2022/08/20 11:51:20;;;;;;;0.70;0.60;;;23.40;99.90;;;;;;5092763;28;20447;-77
2022/08/20 11:53:47;;;;;;;0.73;0.70;;;23.40;99.90;;;;;;5091891;28;20484;-77
2022/08/20 11:56:17;;;;;;;1.00;0.70;;;23.40;99.90;;;;;;5093141;28;20443;-72
2022/08/20 11:58:44;;;;;;;0.80;0.70;;;23.40;99.90;;;;;;5092148;28;20476;-70
2022/08/20 12:01:11;;;;;;;1.00;0.87;;;23.20;1.00;;;;;;5092708;28;20974;-77
2022/08/20 12:03:39;;;;;;;1.20;1.00;;;23.30;1.00;;;;;;5092167;28;20508;-77
2022/08/20 12:06:06;;;;;;;0.60;0.60;;;23.20;1.00;;;;;;5092114;28;20436;-78
2022/08/20 12:08:33;;;;;;;0.97;0.80;;;23.10;1.00;;;;;;5092953;28;20441;-77
2022/08/20 12:11:01;;;;;;;0.70;0.50;;;23.40;1.00;;;;;;5091972;28;20470;-77
2022/08/20 12:13:32;;;;;;;0.90;0.60;;;23.40;1.00;;;;;;5092874;28;20452;-78
2022/08/20 12:15:59;;;;;;;0.70;0.60;;;23.40;1.00;;;;;;5092195;28;20451;-77
2022/08/20 12:18:26;;;;;;;0.80;0.70;;;23.50;99.90;;;;;;5092334;28;20571;-76
2022/08/20 12:20:53;;;;;;;0.70;0.60;;;23.60;99.90;;;;;;5092147;28;20441;-78
2022/08/20 12:23:20;;;;;;;1.63;0.70;;;23.70;99.90;;;;;;5092201;28;20797;-78
2022/08/20 12:25:47;;;;;;;0.80;0.70;;;23.70;99.90;;;;;;5091576;28;20531;-78
2022/08/20 12:28:15;;;;;;;1.03;0.93;;;23.70;99.90;;;;;;5091854;28;20527;-76
2022/08/20 12:30:43;;;;;;;0.90;0.67;;;24.00;99.90;;;;;;5092230;28;20932;-78
2022/08/20 12:33:10;;;;;;;0.60;0.50;;;24.30;99.90;;;;;;5091780;28;20585;-78
2022/08/20 12:35:37;;;;;;;0.67;0.60;;;24.10;99.90;;;;;;5091871;28;20520;-78
2022/08/20 12:38:05;;;;;;;0.80;0.60;;;24.20;99.90;;;;;;5092907;28;20778;-80
2022/08/20 12:40:33;;;;;;;0.90;0.70;;;24.50;99.90;;;;;;5092083;28;20441;-78
2022/08/20 12:43:00;;;;;;;0.70;0.60;;;24.70;99.90;;;;;;5091381;28;20437;-78
2022/08/20 12:45:27;;;;;;;2.13;0.67;;;;;;;;;;5091510;28;20444;-77
2022/08/20 12:48:00;;;;;;;0.93;0.83;;;;;;;;;;5091955;28;20440;-79
2022/08/20 12:50:27;;;;;;;0.80;0.70;;;;;;;;;;5092219;28;20439;-78
2022/08/20 12:52:54;;;;;;;0.80;0.67;;;;;;;;;;5092180;28;20503;-80
2022/08/20 12:55:22;;;;;;;0.80;0.80;;;;;;;;;;5095169;28;20467;-79
2022/08/20 12:57:50;;;;;;;1.00;0.73;;;;;;;;;;5108766;28;20493;-77
2022/08/20 13:00:20;;;;;;;0.60;0.53;;;;;;;;;;5106280;28;20500;-77
2022/08/20 13:02:47;;;;;;;1.07;0.80;;;;;;;;;;5103017;28;20460;-78
2022/08/20 13:05:16;;;;;;;0.80;0.60;;;;;;;;;;5098445;28;20521;-76
2022/08/20 13:07:45;;;;;;;1.27;0.90;;;;;;;;;;5093371;28;20472;-79
2022/08/20 13:10:13;;;;;;;1.10;1.00;;;;;;;;;;5091824;28;20447;-78
2022/08/20 13:12:41;;;;;;;1.10;0.60;;;;;;;;;;5092285;28;20435;-77
2022/08/20 13:15:08;;;;;;;0.90;0.70;;;;;;;;;;5090692;28;20440;-77
2022/08/20 13:17:35;;;;;;;1.20;0.90;;;;;;;;;;5091534;28;20487;-77
2022/08/20 13:20:02;;;;;;;0.80;0.70;;;;;;;;;;5091508;28;20447;-77
2022/08/20 13:22:31;;;;;;;2.40;1.10;;;;;;;;;;5091625;28;20791;-77
2022/08/20 13:24:58;;;;;;;1.00;0.90;;;;;;;;;;5090934;28;20440;-78
2022/08/20 13:27:25;;;;;;;1.00;0.90;;;;;;;;;;5092104;28;20862;-77
2022/08/20 13:29:53;;;;;;;0.80;0.70;;;;;;;;;;5091264;28;20433;-77
2022/08/20 13:32:22;;;;;;;0.80;0.80;;;;;;;;;;5091909;28;20453;-76
2022/08/20 13:34:49;;;;;;;0.83;0.80;;;;;;;;;;5077480;28;20472;-77
2022/08/20 13:37:17;;;;;;;0.97;0.90;;;;;;;;;;5091213;28;20471;-78
2022/08/20 13:39:46;;;;;;;2.40;1.20;;;;;;;;;;5092625;28;20440;-73
2022/08/20 13:42:13;;;;;;;1.20;1.10;;;;;;;;;;5095652;28;20452;-78
2022/08/20 13:44:40;;;;;;;1.07;1.00;;;;;;;;;;5095551;28;20524;-77
2022/08/20 13:47:14;;;;;;;2.90;1.07;;;;;;;;;;5094814;28;20850;-78
2022/08/20 13:49:41;;;;;;;2.00;1.00;;;;;;;;;;5095445;28;20467;-77
2022/08/20 13:52:09;;;;;;;1.63;1.03;;;;;;;;;;5094864;28;20444;-77
2022/08/20 13:54:36;;;;;;;0.80;0.60;;;;;;;;;;5094823;28;20447;-78
2022/08/20 13:57:09;;;;;;;1.60;1.30;;;;;;;;;;5094904;28;20498;-78
2022/08/20 13:59:37;;;;;;;1.00;0.90;;;;;;;;;;5095158;28;20432;-78
2022/08/20 14:02:04;;;;;;;1.03;0.90;;;;;;;;;;5094637;28;20847;-77
2022/08/20 14:04:32;;;;;;;1.23;0.80;;;;;;;;;;5094689;28;20437;-78
2022/08/20 14:06:59;;;;;;;1.23;0.93;;;;;;;;;;5094141;28;20444;-78
2022/08/20 14:09:27;;;;;;;1.77;1.37;;;;;;;;;;5094987;28;20924;-78
2022/08/20 14:11:54;;;;;;;1.00;0.90;;;;;;;;;;5094162;28;20444;-78
2022/08/20 14:14:23;;;;;;;1.30;1.13;;;;;;;;;;5094676;28;20444;-78